Back to Top

Language: 

My Weather Underground Personal Weather Station Historical Data with Graphs...

Delerius Weather Station Historical Data
Daily Summary for January 29, 2018 Units:  English    Metric   Both
« Previous Day
Next Day »
Daily Weekly Monthly Yearly Custom
  High: Low: Average:
Temperature: 51.8 °F 38.1 °F 46.4 °F
Dew Point: 47.9 °F 34.4 °F 41.8 °F
Humidity: 93 % 74 % 84 %
Wind Speed: 25.0 mph 0.0 mph 11.1 mph
Wind Gust: 41.0 mph - -
Wind:- - West
Pressure: 30.41 in 30.05 in -
Precipitation: 0.18 in    
Historical Graphs
 
 
Tabular Data for January 29, 2018
Time Temperature Dew Point Pressure Wind Wind Speed Wind Gust Humidity Rainfall Rate (Hourly) solar Conditions
00:02 51.1 °F 45.1 °F 30.16 in WSW 23.0 mph 35.0 mph 80 % 0.00 in 0 W/m2
00:07 51.1 °F 45.1 °F 30.16 in WSW 19.0 mph 29.0 mph 80 % 0.00 in 0 W/m2
00:12 51.1 °F 45.1 °F 30.16 in WSW 22.0 mph 32.0 mph 80 % 0.00 in 0 W/m2
00:17 51.1 °F 45.1 °F 30.15 in WSW 20.0 mph 33.0 mph 80 % 0.00 in 0 W/m2
00:22 51.1 °F 45.1 °F 30.15 in WSW 18.0 mph 30.0 mph 80 % 0.00 in 0 W/m2
00:27 51.3 °F 45.3 °F 30.15 in WSW 17.0 mph 26.0 mph 80 % 0.00 in 0 W/m2
00:32 51.1 °F 45.1 °F 30.15 in WSW 20.0 mph 29.0 mph 80 % 0.00 in 0 W/m2
00:37 51.3 °F 45.0 °F 30.15 in WSW 19.0 mph 29.0 mph 79 % 0.00 in 0 W/m2
00:42 51.3 °F 45.0 °F 30.14 in WSW 25.0 mph 41.0 mph 79 % 0.00 in 0 W/m2
00:47 51.3 °F 45.0 °F 30.14 in West 23.0 mph 32.0 mph 79 % 0.00 in 0 W/m2
00:52 51.3 °F 45.0 °F 30.15 in West 21.0 mph 31.0 mph 79 % 0.00 in 0 W/m2
00:57 51.4 °F 45.1 °F 30.15 in WSW 24.0 mph 35.0 mph 79 % 0.00 in 0 W/m2
01:02 51.4 °F 45.1 °F 30.14 in WSW 18.0 mph 30.0 mph 79 % 0.00 in 0 W/m2
01:07 51.3 °F 45.0 °F 30.14 in WSW 23.0 mph 33.0 mph 79 % 0.00 in 0 W/m2
01:12 51.3 °F 45.0 °F 30.13 in WSW 23.0 mph 31.0 mph 79 % 0.00 in 0 W/m2
01:17 51.3 °F 45.0 °F 30.13 in WSW 18.0 mph 28.0 mph 79 % 0.00 in 0 W/m2
01:23 51.4 °F 45.1 °F 30.13 in WSW 21.0 mph 35.0 mph 79 % 0.00 in 0 W/m2
01:28 51.4 °F 44.8 °F 30.13 in WSW 22.0 mph 30.0 mph 78 % 0.00 in 0 W/m2
01:33 51.4 °F 45.1 °F 30.12 in WSW 21.0 mph 33.0 mph 79 % 0.00 in 0 W/m2
01:38 51.4 °F 45.1 °F 30.12 in WSW 18.0 mph 28.0 mph 79 % 0.00 in 0 W/m2
01:43 51.4 °F 45.1 °F 30.12 in WSW 23.0 mph 33.0 mph 79 % 0.00 in 0 W/m2
01:48 51.4 °F 45.1 °F 30.12 in WSW 24.0 mph 33.0 mph 79 % 0.00 in 0 W/m2
01:53 51.4 °F 45.1 °F 30.12 in WSW 21.0 mph 34.0 mph 79 % 0.00 in 0 W/m2
01:58 51.6 °F 45.3 °F 30.11 in WSW 21.0 mph 35.0 mph 79 % 0.00 in 0 W/m2
02:03 51.4 °F 45.1 °F 30.11 in WSW 23.0 mph 35.0 mph 79 % 0.00 in 0 W/m2
02:08 51.4 °F 45.1 °F 30.11 in WSW 22.0 mph 37.0 mph 79 % 0.00 in 0 W/m2
02:13 51.4 °F 45.1 °F 30.11 in WSW 20.0 mph 32.0 mph 79 % 0.00 in 0 W/m2
02:18 51.4 °F 45.1 °F 30.11 in WSW 22.0 mph 32.0 mph 79 % 0.00 in 0 W/m2
02:23 51.4 °F 45.5 °F 30.10 in WSW 24.0 mph 34.0 mph 80 % 0.00 in 0 W/m2
02:28 51.4 °F 45.5 °F 30.10 in WSW 22.0 mph 36.0 mph 80 % 0.00 in 0 W/m2
02:33 51.4 °F 45.5 °F 30.10 in WSW 22.0 mph 34.0 mph 80 % 0.00 in 0 W/m2
02:38 51.4 °F 45.5 °F 30.10 in WSW 21.0 mph 39.0 mph 80 % 0.00 in 0 W/m2
02:43 51.4 °F 45.8 °F 30.09 in WSW 19.0 mph 29.0 mph 81 % 0.00 in 0 W/m2
02:48 51.4 °F 45.8 °F 30.09 in WSW 21.0 mph 30.0 mph 81 % 0.00 in 0 W/m2
02:53 51.4 °F 45.8 °F 30.10 in WSW 20.0 mph 36.0 mph 81 % 0.00 in 0 W/m2
02:58 51.4 °F 45.8 °F 30.09 in WSW 21.0 mph 29.0 mph 81 % 0.00 in 0 W/m2
03:03 51.4 °F 45.8 °F 30.09 in WSW 17.0 mph 26.0 mph 81 % 0.00 in 0 W/m2
03:08 51.4 °F 45.8 °F 30.09 in WSW 20.0 mph 34.0 mph 81 % 0.00 in 0 W/m2
03:13 51.6 °F 46.0 °F 30.09 in WSW 20.0 mph 28.0 mph 81 % 0.00 in 0 W/m2
03:18 51.6 °F 46.0 °F 30.09 in WSW 16.0 mph 27.0 mph 81 % 0.00 in 0 W/m2
03:23 51.6 °F 46.0 °F 30.09 in WSW 17.0 mph 23.0 mph 81 % 0.00 in 0 W/m2
03:28 51.6 °F 46.0 °F 30.09 in WSW 16.0 mph 28.0 mph 81 % 0.00 in 0 W/m2
03:33 51.8 °F 46.2 °F 30.09 in WSW 16.0 mph 30.0 mph 81 % 0.00 in 0 W/m2
03:38 51.8 °F 46.2 °F 30.09 in WSW 15.0 mph 25.0 mph 81 % 0.00 in 0 W/m2
03:43 51.8 °F 46.5 °F 30.08 in SW 16.0 mph 23.0 mph 82 % 0.00 in 0 W/m2
03:48 51.6 °F 46.3 °F 30.09 in WSW 14.0 mph 24.0 mph 82 % 0.00 in 0 W/m2
03:53 51.6 °F 46.6 °F 30.08 in WSW 16.0 mph 26.0 mph 83 % 0.00 in 0 W/m2
03:58 51.4 °F 46.4 °F 30.08 in SW 19.0 mph 29.0 mph 83 % 0.00 in 0 W/m2
04:03 51.4 °F 46.4 °F 30.08 in WSW 13.0 mph 24.0 mph 83 % 0.00 in 0 W/m2
04:08 51.4 °F 46.8 °F 30.08 in SW 15.0 mph 27.0 mph 84 % 0.00 in 0 W/m2
04:13 51.4 °F 46.8 °F 30.08 in WSW 13.0 mph 24.0 mph 84 % 0.00 in 0 W/m2
04:18 51.4 °F 47.1 °F 30.07 in SW 14.0 mph 21.0 mph 85 % 0.00 in 0 W/m2
04:23 51.4 °F 47.1 °F 30.07 in SW 17.0 mph 27.0 mph 85 % 0.00 in 0 W/m2
04:28 51.3 °F 46.9 °F 30.08 in WSW 13.0 mph 26.0 mph 85 % 0.00 in 0 W/m2
04:33 51.3 °F 46.9 °F 30.08 in WSW 12.0 mph 19.0 mph 85 % 0.00 in 0 W/m2
04:38 51.3 °F 47.2 °F 30.08 in SW 16.0 mph 23.0 mph 86 % 0.00 in 0 W/m2
04:43 51.3 °F 47.2 °F 30.08 in SW 16.0 mph 25.0 mph 86 % 0.00 in 0 W/m2
04:49 51.3 °F 47.2 °F 30.08 in SW 17.0 mph 31.0 mph 86 % 0.00 in 0 W/m2
04:54 51.3 °F 47.2 °F 30.08 in SW 16.0 mph 25.0 mph 86 % 0.00 in 0 W/m2
04:59 51.3 °F 47.2 °F 30.08 in SW 17.0 mph 25.0 mph 86 % 0.00 in 0 W/m2
05:04 51.3 °F 47.2 °F 30.08 in SW 15.0 mph 27.0 mph 86 % 0.00 in 0 W/m2
05:09 51.3 °F 47.2 °F 30.08 in SW 15.0 mph 26.0 mph 86 % 0.00 in 0 W/m2
05:14 51.3 °F 47.2 °F 30.08 in SW 15.0 mph 27.0 mph 86 % 0.00 in 0 W/m2
05:19 51.3 °F 47.2 °F 30.08 in SW 15.0 mph 25.0 mph 86 % 0.00 in 0 W/m2
05:24 51.3 °F 47.2 °F 30.07 in SW 11.0 mph 21.0 mph 86 % 0.00 in 0 W/m2
05:29 51.3 °F 47.2 °F 30.07 in SW 16.0 mph 27.0 mph 86 % 0.00 in 0 W/m2
05:34 51.3 °F 47.2 °F 30.06 in SW 15.0 mph 25.0 mph 86 % 0.00 in 0 W/m2
05:39 51.1 °F 47.3 °F 30.06 in SW 11.0 mph 15.0 mph 87 % 0.00 in 0 W/m2
05:44 51.1 °F 47.3 °F 30.06 in SW 16.0 mph 31.0 mph 87 % 0.00 in 0 W/m2
05:49 51.1 °F 47.3 °F 30.06 in SW 16.0 mph 23.0 mph 87 % 0.00 in 0 W/m2
05:54 51.1 °F 47.3 °F 30.06 in SW 16.0 mph 26.0 mph 87 % 0.00 in 0 W/m2
05:59 51.1 °F 47.3 °F 30.06 in SW 15.0 mph 21.0 mph 87 % 0.00 in 0 W/m2
06:04 51.3 °F 47.5 °F 30.06 in SW 17.0 mph 25.0 mph 87 % 0.00 in 0 W/m2
06:09 51.3 °F 47.5 °F 30.06 in SW 13.0 mph 20.0 mph 87 % 0.00 in 0 W/m2
06:14 51.3 °F 47.2 °F 30.06 in SW 13.0 mph 23.0 mph 86 % 0.00 in 0 W/m2
06:19 51.3 °F 47.2 °F 30.06 in SW 13.0 mph 23.0 mph 86 % 0.00 in 0 W/m2
06:24 51.3 °F 47.2 °F 30.05 in SW 12.0 mph 20.0 mph 86 % 0.00 in 0 W/m2
06:29 51.4 °F 47.4 °F 30.06 in SW 16.0 mph 23.0 mph 86 % 0.00 in 0 W/m2
06:34 51.4 °F 47.4 °F 30.06 in SW 15.0 mph 24.0 mph 86 % 0.00 in 0 W/m2
06:39 51.4 °F 47.4 °F 30.06 in WSW 17.0 mph 25.0 mph 86 % 0.00 in 0 W/m2
06:44 51.4 °F 47.7 °F 30.06 in SW 14.0 mph 21.0 mph 87 % 0.00 in 0 W/m2
06:49 51.4 °F 47.7 °F 30.06 in SW 14.0 mph 23.0 mph 87 % 0.00 in 0 W/m2
06:54 51.3 °F 47.5 °F 30.06 in SW 14.0 mph 22.0 mph 87 % 0.00 in 0 W/m2
06:59 51.3 °F 47.5 °F 30.06 in SW 13.0 mph 22.0 mph 87 % 0.00 in 0 W/m2
07:04 51.3 °F 47.5 °F 30.06 in SW 12.0 mph 19.0 mph 87 % 0.00 in 0 W/m2
07:09 51.3 °F 47.5 °F 30.06 in SW 13.0 mph 22.0 mph 87 % 0.00 in 0 W/m2
07:14 51.3 °F 47.5 °F 30.06 in SW 14.0 mph 24.0 mph 87 % 0.00 in 0 W/m2
07:19 51.3 °F 47.5 °F 30.06 in SW 13.0 mph 19.0 mph 87 % 0.00 in 0 W/m2
07:24 51.3 °F 47.5 °F 30.07 in WSW 14.0 mph 23.0 mph 87 % 0.00 in 0 W/m2
07:29 51.3 °F 47.5 °F 30.07 in SW 13.0 mph 23.0 mph 87 % 0.00 in 0 W/m2
07:34 51.1 °F 47.6 °F 30.07 in SW 11.0 mph 23.0 mph 88 % 0.00 in 0 W/m2
07:39 51.1 °F 47.6 °F 30.07 in WSW 12.0 mph 19.0 mph 88 % 0.00 in 0 W/m2
07:44 51.1 °F 47.6 °F 30.07 in WSW 12.0 mph 18.0 mph 88 % 0.00 in 0 W/m2
07:49 51.1 °F 47.6 °F 30.08 in WSW 11.0 mph 16.0 mph 88 % 0.00 in 0 W/m2
07:54 50.9 °F 47.8 °F 30.08 in WSW 9.0 mph 13.0 mph 89 % 0.00 in 0 W/m2
08:00 50.7 °F 47.6 °F 30.08 in WSW 7.0 mph 11.0 mph 89 % 0.00 in 0 W/m2
08:05 50.7 °F 47.9 °F 30.09 in West 7.0 mph 9.0 mph 90 % 0.01 in 0 W/m2
08:10 50.5 °F 47.7 °F 30.09 in West 6.0 mph 13.0 mph 90 % 0.02 in 0 W/m2
08:15 50.4 °F 47.5 °F 30.09 in WNW 7.0 mph 11.0 mph 90 % 0.04 in 0 W/m2
08:20 50.2 °F 47.7 °F 30.09 in West 10.0 mph 16.0 mph 91 % 0.07 in 0 W/m2
08:25 49.8 °F 47.3 °F 30.09 in West 8.0 mph 16.0 mph 91 % 0.09 in 0 W/m2
08:30 49.5 °F 46.9 °F 30.09 in West 10.0 mph 15.0 mph 91 % 0.09 in 0 W/m2
08:35 49.5 °F 46.9 °F 30.09 in West 8.0 mph 12.0 mph 91 % 0.09 in 0 W/m2
08:40 49.3 °F 47.1 °F 30.10 in West 6.0 mph 10.0 mph 92 % 0.09 in 0 W/m2
08:45 49.3 °F 47.1 °F 30.10 in WNW 7.0 mph 11.0 mph 92 % 0.09 in 7 W/m2
08:50 49.1 °F 46.9 °F 30.10 in WNW 10.0 mph 19.0 mph 92 % 0.09 in 9 W/m2
08:55 49.1 °F 46.6 °F 30.11 in WNW 13.0 mph 22.0 mph 91 % 0.09 in 7 W/m2
09:00 48.9 °F 46.4 °F 30.11 in West 10.0 mph 18.0 mph 91 % 0.09 in 7 W/m2
09:05 48.9 °F 46.4 °F 30.11 in WNW 9.0 mph 13.0 mph 91 % 0.09 in 9 W/m2
09:10 48.7 °F 46.2 °F 30.11 in WNW 7.0 mph 10.0 mph 91 % 0.09 in 9 W/m2
09:15 48.7 °F 46.2 °F 30.11 in West 7.0 mph 10.0 mph 91 % 0.06 in 11 W/m2
09:20 48.6 °F 46.1 °F 30.11 in WNW 4.0 mph 8.0 mph 91 % 0.04 in 16 W/m2
09:25 48.6 °F 46.3 °F 30.11 in WNW 7.0 mph 15.0 mph 92 % 0.03 in 26 W/m2
09:30 48.4 °F 46.2 °F 30.11 in West 9.0 mph 13.0 mph 92 % 0.04 in 35 W/m2
09:35 48.4 °F 46.2 °F 30.12 in WNW 7.0 mph 14.0 mph 92 % 0.03 in 18 W/m2
09:40 48.0 °F 45.8 °F 30.12 in NW 8.0 mph 14.0 mph 92 % 0.05 in 11 W/m2
09:45 47.7 °F 45.5 °F 30.13 in NW 9.0 mph 15.0 mph 92 % 0.06 in 18 W/m2
09:50 47.1 °F 44.9 °F 30.13 in NW 9.0 mph 15.0 mph 92 % 0.06 in 30 W/m2
09:55 46.9 °F 44.7 °F 30.14 in NW 10.0 mph 15.0 mph 92 % 0.06 in 28 W/m2
10:00 46.8 °F 44.8 °F 30.14 in NW 10.0 mph 16.0 mph 93 % 0.06 in 19 W/m2
10:05 46.4 °F 44.2 °F 30.14 in WNW 10.0 mph 15.0 mph 92 % 0.07 in 26 W/m2
10:10 46.0 °F 44.1 °F 30.14 in WNW 13.0 mph 21.0 mph 93 % 0.06 in 39 W/m2
10:15 45.9 °F 43.7 °F 30.14 in WNW 10.0 mph 20.0 mph 92 % 0.07 in 49 W/m2
10:20 45.7 °F 43.8 °F 30.14 in NW 9.0 mph 15.0 mph 93 % 0.06 in 58 W/m2
10:25 45.7 °F 43.8 °F 30.15 in WNW 8.0 mph 12.0 mph 93 % 0.06 in 53 W/m2
10:31 45.7 °F 43.8 °F 30.15 in WNW 10.0 mph 18.0 mph 93 % 0.06 in 70 W/m2
10:36 45.7 °F 43.8 °F 30.15 in WNW 11.0 mph 18.0 mph 93 % 0.05 in 86 W/m2
10:41 45.7 °F 43.5 °F 30.15 in WNW 10.0 mph 15.0 mph 92 % 0.04 in 83 W/m2
10:46 45.7 °F 43.8 °F 30.16 in WNW 8.0 mph 12.0 mph 93 % 0.03 in 107 W/m2
10:51 45.7 °F 43.5 °F 30.16 in WNW 9.0 mph 15.0 mph 92 % 0.03 in 67 W/m2
10:56 45.7 °F 43.5 °F 30.16 in WNW 10.0 mph 15.0 mph 92 % 0.03 in 95 W/m2
11:01 45.7 °F 43.5 °F 30.16 in WNW 8.0 mph 13.0 mph 92 % 0.02 in 93 W/m2
11:06 45.7 °F 43.5 °F 30.16 in WNW 9.0 mph 13.0 mph 92 % 0.02 in 83 W/m2
11:11 45.9 °F 43.7 °F 30.16 in WNW 7.0 mph 12.0 mph 92 % 0.01 in 102 W/m2
11:16 45.9 °F 43.7 °F 30.16 in WNW 9.0 mph 13.0 mph 92 % 0.01 in 125 W/m2
11:21 45.9 °F 43.7 °F 30.16 in WNW 10.0 mph 19.0 mph 92 % 0.01 in 132 W/m2
11:26 45.9 °F 43.7 °F 30.17 in WNW 10.0 mph 18.0 mph 92 % 0.00 in 130 W/m2
11:31 46.0 °F 43.6 °F 30.17 in WNW 12.0 mph 22.0 mph 91 % 0.00 in 255 W/m2
11:36 46.2 °F 43.7 °F 30.17 in WNW 10.0 mph 16.0 mph 91 % 0.00 in 163 W/m2
11:41 46.4 °F 43.6 °F 30.17 in WNW 10.0 mph 14.0 mph 90 % 0.00 in 60 W/m2
11:46 46.2 °F 43.4 °F 30.18 in WNW 14.0 mph 20.0 mph 90 % 0.00 in 63 W/m2
11:51 46.0 °F 43.3 °F 30.18 in WNW 11.0 mph 18.0 mph 90 % 0.00 in 111 W/m2
11:56 45.9 °F 42.8 °F 30.18 in WNW 13.0 mph 21.0 mph 89 % 0.00 in 176 W/m2
12:01 45.9 °F 42.8 °F 30.18 in WNW 11.0 mph 22.0 mph 89 % 0.00 in 137 W/m2
12:06 45.9 °F 42.8 °F 30.18 in NW 12.0 mph 21.0 mph 89 % 0.00 in 120 W/m2
12:11 45.9 °F 42.8 °F 30.19 in WNW 9.0 mph 16.0 mph 89 % 0.00 in 207 W/m2
12:16 46.0 °F 42.7 °F 30.19 in WNW 10.0 mph 16.0 mph 88 % 0.00 in 139 W/m2
12:21 46.0 °F 42.4 °F 30.19 in WNW 16.0 mph 27.0 mph 87 % 0.00 in 97 W/m2
12:26 45.9 °F 42.2 °F 30.19 in WNW 10.0 mph 21.0 mph 87 % 0.00 in 97 W/m2
12:31 45.9 °F 42.2 °F 30.20 in WNW 13.0 mph 21.0 mph 87 % 0.00 in 116 W/m2
12:36 45.9 °F 42.2 °F 30.20 in WNW 7.0 mph 12.0 mph 87 % 0.00 in 125 W/m2
12:41 46.0 °F 42.7 °F 30.19 in NW 11.0 mph 19.0 mph 88 % 0.00 in 371 W/m2
12:46 46.6 °F 42.9 °F 30.19 in WNW 11.0 mph 21.0 mph 87 % 0.00 in 271 W/m2
12:52 46.8 °F 42.8 °F 30.19 in WNW 11.0 mph 18.0 mph 86 % 0.00 in 350 W/m2
12:57 47.1 °F 42.5 °F 30.19 in WNW 14.0 mph 23.0 mph 84 % 0.00 in 338 W/m2
13:02 47.1 °F 42.2 °F 30.19 in NW 13.0 mph 21.0 mph 83 % 0.00 in 355 W/m2
13:07 47.5 °F 42.6 °F 30.19 in NW 10.0 mph 20.0 mph 83 % 0.00 in 381 W/m2
13:12 47.8 °F 42.6 °F 30.20 in WNW 15.0 mph 24.0 mph 82 % 0.00 in 441 W/m2
13:17 47.8 °F 42.3 °F 30.20 in WNW 11.0 mph 19.0 mph 81 % 0.00 in 165 W/m2
13:22 47.7 °F 42.1 °F 30.21 in WNW 13.0 mph 22.0 mph 81 % 0.00 in 431 W/m2
13:27 47.8 °F 42.0 °F 30.21 in WNW 16.0 mph 26.0 mph 80 % 0.00 in 410 W/m2
13:32 48.0 °F 41.5 °F 30.20 in NW 12.0 mph 20.0 mph 78 % 0.00 in 373 W/m2
13:37 48.6 °F 42.3 °F 30.20 in WNW 11.0 mph 21.0 mph 79 % 0.00 in 352 W/m2
13:42 48.4 °F 41.2 °F 30.21 in NW 15.0 mph 29.0 mph 76 % 0.00 in 114 W/m2
13:47 47.8 °F 41.0 °F 30.21 in NW 11.0 mph 18.0 mph 77 % 0.00 in 77 W/m2
13:52 47.1 °F 40.6 °F 30.22 in NW 14.0 mph 24.0 mph 78 % 0.00 in 74 W/m2
13:57 46.4 °F 40.2 °F 30.21 in NW 15.0 mph 24.0 mph 79 % 0.00 in 60 W/m2
14:02 45.9 °F 39.7 °F 30.22 in WNW 13.0 mph 24.0 mph 79 % 0.00 in 88 W/m2
14:07 45.7 °F 39.9 °F 30.22 in WNW 10.0 mph 18.0 mph 80 % 0.00 in 244 W/m2
14:12 45.9 °F 39.7 °F 30.23 in WNW 13.0 mph 21.0 mph 79 % 0.00 in 241 W/m2
14:17 46.2 °F 40.1 °F 30.23 in WNW 10.0 mph 18.0 mph 79 % 0.00 in 244 W/m2
14:22 46.6 °F 40.1 °F 30.23 in WNW 12.0 mph 18.0 mph 78 % 0.00 in 239 W/m2
14:27 46.6 °F 39.8 °F 30.23 in WNW 14.0 mph 22.0 mph 77 % 0.00 in 229 W/m2
14:32 46.8 °F 39.6 °F 30.24 in WNW 13.0 mph 20.0 mph 76 % 0.00 in 221 W/m2
14:37 46.8 °F 39.6 °F 30.24 in NW 10.0 mph 16.0 mph 76 % 0.00 in 218 W/m2
14:42 46.8 °F 39.6 °F 30.25 in WNW 11.0 mph 19.0 mph 76 % 0.00 in 288 W/m2
14:47 47.1 °F 39.9 °F 30.25 in WNW 10.0 mph 21.0 mph 76 % 0.00 in 234 W/m2
14:52 47.1 °F 39.6 °F 30.25 in NW 12.0 mph 20.0 mph 75 % 0.00 in 197 W/m2
14:57 47.3 °F 39.8 °F 30.25 in WNW 12.0 mph 20.0 mph 75 % 0.00 in 216 W/m2
15:02 47.1 °F 39.3 °F 30.25 in WNW 11.0 mph 20.0 mph 74 % 0.00 in 229 W/m2
15:07 47.3 °F 39.4 °F 30.26 in WNW 11.0 mph 15.0 mph 74 % 0.00 in 225 W/m2
15:12 47.1 °F 39.3 °F 30.26 in WNW 13.0 mph 19.0 mph 74 % 0.00 in 46 W/m2
15:18 46.8 °F 38.9 °F 30.26 in NW 12.0 mph 19.0 mph 74 % 0.00 in 30 W/m2
15:23 46.0 °F 38.9 °F 30.27 in WNW 14.0 mph 23.0 mph 76 % 0.00 in 37 W/m2
15:28 45.3 °F 37.9 °F 30.27 in WNW 14.0 mph 23.0 mph 75 % 0.00 in 30 W/m2
15:33 45.0 °F 38.2 °F 30.27 in WNW 11.0 mph 20.0 mph 77 % 0.00 in 28 W/m2
15:38 44.8 °F 38.3 °F 30.27 in WNW 13.0 mph 20.0 mph 78 % 0.00 in 37 W/m2
15:43 44.4 °F 38.0 °F 30.27 in WNW 11.0 mph 15.0 mph 78 % 0.00 in 33 W/m2
15:48 44.4 °F 38.3 °F 30.27 in West 9.0 mph 15.0 mph 79 % 0.00 in 28 W/m2
15:53 44.2 °F 38.1 °F 30.28 in WNW 8.0 mph 13.0 mph 79 % 0.00 in 28 W/m2
15:58 44.1 °F 38.0 °F 30.28 in WNW 11.0 mph 19.0 mph 79 % 0.00 in 25 W/m2
16:03 44.1 °F 37.6 °F 30.29 in NW 8.0 mph 14.0 mph 78 % 0.00 in 23 W/m2
16:08 43.9 °F 37.5 °F 30.29 in NW 7.0 mph 13.0 mph 78 % 0.00 in 21 W/m2
16:13 43.5 °F 37.1 °F 30.30 in NW 6.0 mph 11.0 mph 78 % 0.00 in 19 W/m2
16:18 43.3 °F 36.9 °F 30.30 in NW 7.0 mph 13.0 mph 78 % 0.00 in 16 W/m2
16:23 43.2 °F 37.1 °F 30.30 in NW 6.0 mph 11.0 mph 79 % 0.00 in 14 W/m2
16:28 43.2 °F 37.1 °F 30.30 in WNW 12.0 mph 21.0 mph 79 % 0.00 in 11 W/m2
16:33 43.0 °F 37.2 °F 30.30 in WNW 7.0 mph 9.0 mph 80 % 0.00 in 9 W/m2
16:38 43.0 °F 37.2 °F 30.30 in WNW 7.0 mph 14.0 mph 80 % 0.00 in 7 W/m2
16:43 42.6 °F 37.2 °F 30.30 in WNW 8.0 mph 11.0 mph 81 % 0.00 in 5 W/m2
16:48 42.6 °F 37.2 °F 30.31 in WNW 8.0 mph 14.0 mph 81 % 0.00 in 0 W/m2
16:53 42.4 °F 37.0 °F 30.31 in WNW 9.0 mph 12.0 mph 81 % 0.00 in 0 W/m2
16:58 42.4 °F 37.0 °F 30.31 in WNW 9.0 mph 14.0 mph 81 % 0.00 in 0 W/m2
17:03 42.4 °F 37.0 °F 30.31 in WNW 9.0 mph 13.0 mph 81 % 0.00 in 0 W/m2
17:08 42.4 °F 37.0 °F 30.31 in West 10.0 mph 16.0 mph 81 % 0.00 in 0 W/m2
17:13 42.6 °F 36.9 °F 30.32 in WNW 9.0 mph 14.0 mph 80 % 0.00 in 0 W/m2
17:19 42.6 °F 37.2 °F 30.32 in WNW 8.0 mph 12.0 mph 81 % 0.00 in 0 W/m2
17:24 42.6 °F 37.2 °F 30.32 in WNW 7.0 mph 12.0 mph 81 % 0.00 in 0 W/m2
17:29 42.6 °F 37.2 °F 30.33 in WNW 7.0 mph 10.0 mph 81 % 0.00 in 0 W/m2
17:34 42.8 °F 37.4 °F 30.33 in WNW 6.0 mph 10.0 mph 81 % 0.00 in 0 W/m2
17:39 42.8 °F 37.4 °F 30.33 in WNW 5.0 mph 13.0 mph 81 % 0.00 in 0 W/m2
17:44 42.8 °F 37.4 °F 30.33 in WNW 7.0 mph 12.0 mph 81 % 0.00 in 0 W/m2
17:49 42.6 °F 37.2 °F 30.34 in WNW 7.0 mph 12.0 mph 81 % 0.00 in 0 W/m2
17:54 42.6 °F 37.2 °F 30.34 in WNW 8.0 mph 12.0 mph 81 % 0.00 in 0 W/m2
17:59 42.6 °F 37.2 °F 30.34 in WNW 9.0 mph 14.0 mph 81 % 0.00 in 0 W/m2
18:04 42.4 °F 37.0 °F 30.34 in WNW 8.0 mph 12.0 mph 81 % 0.00 in 0 W/m2
18:09 42.3 °F 36.8 °F 30.34 in WNW 9.0 mph 14.0 mph 81 % 0.00 in 0 W/m2
18:14 42.1 °F 37.0 °F 30.35 in WNW 8.0 mph 13.0 mph 82 % 0.00 in 0 W/m2
18:19 41.9 °F 36.8 °F 30.35 in WNW 9.0 mph 14.0 mph 82 % 0.00 in 0 W/m2
18:24 41.7 °F 36.6 °F 30.35 in West 10.0 mph 14.0 mph 82 % 0.00 in 0 W/m2
18:29 41.7 °F 36.6 °F 30.35 in WNW 6.0 mph 9.0 mph 82 % 0.00 in 0 W/m2
18:34 41.5 °F 36.5 °F 30.35 in WNW 5.0 mph 8.0 mph 82 % 0.00 in 0 W/m2
18:39 41.4 °F 36.3 °F 30.36 in WNW 6.0 mph 9.0 mph 82 % 0.00 in 0 W/m2
18:44 41.4 °F 36.3 °F 30.36 in WNW 6.0 mph 11.0 mph 82 % 0.00 in 0 W/m2
18:49 41.2 °F 36.4 °F 30.36 in WNW 8.0 mph 13.0 mph 83 % 0.00 in 0 W/m2
18:54 41.2 °F 36.4 °F 30.36 in WNW 8.0 mph 14.0 mph 83 % 0.00 in 0 W/m2
18:59 41.2 °F 36.4 °F 30.35 in WNW 9.0 mph 14.0 mph 83 % 0.00 in 0 W/m2
19:04 41.2 °F 36.4 °F 30.36 in WNW 10.0 mph 16.0 mph 83 % 0.00 in 0 W/m2
19:09 41.2 °F 36.4 °F 30.35 in WNW 10.0 mph 14.0 mph 83 % 0.00 in 0 W/m2
19:14 41.2 °F 36.4 °F 30.36 in WNW 9.0 mph 14.0 mph 83 % 0.00 in 0 W/m2
19:19 41.0 °F 36.2 °F 30.36 in WNW 9.0 mph 13.0 mph 83 % 0.00 in 0 W/m2
19:24 40.8 °F 36.1 °F 30.37 in West 6.0 mph 11.0 mph 83 % 0.00 in 0 W/m2
19:29 40.8 °F 36.1 °F 30.38 in West 6.0 mph 13.0 mph 83 % 0.00 in 0 W/m2
19:34 40.8 °F 36.1 °F 30.37 in West 8.0 mph 12.0 mph 83 % 0.00 in 0 W/m2
19:39 40.8 °F 36.1 °F 30.37 in West 8.0 mph 12.0 mph 83 % 0.00 in 0 W/m2
19:44 40.6 °F 35.9 °F 30.37 in West 10.0 mph 14.0 mph 83 % 0.00 in 0 W/m2
19:49 40.6 °F 36.2 °F 30.38 in West 9.0 mph 14.0 mph 84 % 0.00 in 0 W/m2
19:54 40.6 °F 36.2 °F 30.38 in WNW 10.0 mph 14.0 mph 84 % 0.00 in 0 W/m2
19:59 40.5 °F 36.0 °F 30.38 in WNW 9.0 mph 12.0 mph 84 % 0.00 in 0 W/m2
20:04 40.5 °F 36.0 °F 30.39 in WNW 7.0 mph 10.0 mph 84 % 0.00 in 0 W/m2
20:09 40.5 °F 36.0 °F 30.39 in WNW 9.0 mph 13.0 mph 84 % 0.00 in 0 W/m2
20:14 40.5 °F 36.0 °F 30.39 in NW 8.0 mph 13.0 mph 84 % 0.00 in 0 W/m2
20:19 40.5 °F 36.0 °F 30.39 in WNW 9.0 mph 14.0 mph 84 % 0.00 in 0 W/m2
20:24 40.5 °F 36.0 °F 30.39 in WNW 9.0 mph 13.0 mph 84 % 0.00 in 0 W/m2
20:29 40.5 °F 36.0 °F 30.39 in NW 8.0 mph 11.0 mph 84 % 0.00 in 0 W/m2
20:35 40.3 °F 35.8 °F 30.39 in NW 5.0 mph 11.0 mph 84 % 0.00 in 0 W/m2
20:40 40.3 °F 35.8 °F 30.40 in NW 2.0 mph 5.0 mph 84 % 0.00 in 0 W/m2
20:45 40.3 °F 35.8 °F 30.40 in Calm   4.0 mph 84 % 0.00 in 0 W/m2
20:50 39.9 °F 35.2 °F 30.40 in Calm     83 % 0.00 in 0 W/m2
20:55 39.7 °F 35.3 °F 30.40 in Calm   3.0 mph 84 % 0.00 in 0 W/m2
21:00 39.6 °F 35.1 °F 30.40 in Calm   2.0 mph 84 % 0.00 in 0 W/m2
21:05 39.4 °F 34.9 °F 30.41 in WNW 1.0 mph 5.0 mph 84 % 0.00 in 0 W/m2
21:10 39.4 °F 35.2 °F 30.41 in WNW 4.0 mph 7.0 mph 85 % 0.00 in 0 W/m2
21:15 39.4 °F 35.2 °F 30.40 in NW 6.0 mph 11.0 mph 85 % 0.00 in 0 W/m2
21:20 39.4 °F 35.5 °F 30.40 in NW 6.0 mph 10.0 mph 86 % 0.00 in 0 W/m2
21:25 39.6 °F 35.7 °F 30.40 in WNW 7.0 mph 10.0 mph 86 % 0.00 in 0 W/m2
21:30 39.7 °F 35.9 °F 30.40 in WNW 4.0 mph 6.0 mph 86 % 0.00 in 0 W/m2
21:35 39.7 °F 35.6 °F 30.40 in West 5.0 mph 9.0 mph 85 % 0.00 in 0 W/m2
21:40 39.7 °F 35.6 °F 30.40 in WNW 4.0 mph 8.0 mph 85 % 0.00 in 0 W/m2
21:45 39.9 °F 35.8 °F 30.41 in WNW 2.0 mph 5.0 mph 85 % 0.00 in 0 W/m2
21:50 39.7 °F 35.6 °F 30.40 in Calm   2.0 mph 85 % 0.00 in 0 W/m2
21:55 39.7 °F 35.6 °F 30.41 in WSW 1.0 mph 8.0 mph 85 % 0.00 in 0 W/m2
22:00 39.7 °F 35.6 °F 30.41 in Calm     85 % 0.00 in 0 W/m2
22:05 39.6 °F 35.1 °F 30.41 in Calm   1.0 mph 84 % 0.00 in 0 W/m2
22:10 39.4 °F 34.9 °F 30.41 in Calm   1.0 mph 84 % 0.00 in 0 W/m2
22:15 39.2 °F 35.1 °F 30.40 in WNW 2.0 mph 6.0 mph 85 % 0.00 in 0 W/m2
22:20 39.0 °F 34.9 °F 30.41 in WNW 3.0 mph 7.0 mph 85 % 0.00 in 0 W/m2
22:25 38.8 °F 34.7 °F 30.40 in WNW 3.0 mph 5.0 mph 85 % 0.00 in 0 W/m2
22:30 38.8 °F 34.7 °F 30.41 in Calm   3.0 mph 85 % 0.00 in 0 W/m2
22:35 38.7 °F 34.5 °F 30.41 in Calm     85 % 0.00 in 0 W/m2
22:40 38.5 °F 34.4 °F 30.40 in WNW 1.0 mph 5.0 mph 85 % 0.00 in 0 W/m2
22:45 38.3 °F 34.5 °F 30.41 in WNW 3.0 mph 5.0 mph 86 % 0.00 in 0 W/m2
22:50 38.3 °F 34.8 °F 30.41 in WSW 4.0 mph 6.0 mph 87 % 0.00 in 0 W/m2
22:55 38.3 °F 34.8 °F 30.41 in West 4.0 mph 6.0 mph 87 % 0.00 in 0 W/m2
23:00 38.1 °F 34.6 °F 30.40 in WNW 3.0 mph 6.0 mph 87 % 0.00 in 0 W/m2
23:05 38.1 °F 34.6 °F 30.41 in West 3.0 mph 6.0 mph 87 % 0.00 in 0 W/m2
23:10 38.1 °F 34.6 °F 30.40 in West 4.0 mph 6.0 mph 87 % 0.00 in 0 W/m2
23:15 38.3 °F 35.1 °F 30.40 in WNW 5.0 mph 6.0 mph 88 % 0.00 in 0 W/m2
23:21 38.5 °F 35.2 °F 30.41 in West 6.0 mph 11.0 mph 88 % 0.00 in 0 W/m2
23:26 38.7 °F 35.4 °F 30.41 in West 7.0 mph 10.0 mph 88 % 0.00 in 0 W/m2
23:31 39.0 °F 35.5 °F 30.40 in West 6.0 mph 10.0 mph 87 % 0.00 in 0 W/m2
23:36 39.0 °F 35.5 °F 30.41 in West 5.0 mph 8.0 mph 87 % 0.00 in 0 W/m2
23:41 39.2 °F 35.7 °F 30.41 in West 4.0 mph 6.0 mph 87 % 0.00 in 0 W/m2
23:46 39.4 °F 35.8 °F 30.41 in WSW 4.0 mph 6.0 mph 87 % 0.00 in 0 W/m2
23:51 39.4 °F 35.8 °F 30.41 in WSW 2.0 mph 5.0 mph 87 % 0.00 in 0 W/m2
23:56 39.4 °F 35.8 °F 30.40 in Calm     87 % 0.00 in 0 W/m2
Delerius-Weather
Compliments of Weather Underground - 2.25 mb

Data updates at regular intervals.